Terminal Aerodrome Forecast
Issued by NWS Twin Cities, MN

Home | Current Version | Previous Version | Graphics & Text | Print | Product List | Glossary On
Versions: 1 2 3 4 5 6 7 8 9 10 11 12 13 14 15 16 17 18 19
000
FTUS43 KMPX 241723
TAFSTC
TAF
KSTC 241723Z 2418/2518 32015G23KT P6SM BKN019 OVC035
      TEMPO 2418/2421 2SM -SN OVC015
     FM250000 31016KT P6SM OVC020
     FM250400 30012KT P6SM SCT020
     FM251100 30005KT P6SM SCT120=

USA.gov is the U.S. government's official web portal to all federal, state and local government web resources and services.